Gubser Mill, Kentucky
Current Conditions -  °F | °C
As of 5:27 AM on Wednesday 22 Oct 2014 (Local Time) from KLUK Reporting Station
Overcast Overcast  
Wind Chill: 44°   Ceiling: 2300
Heat Index: 46°   Visibility: 10mi
Dew Point: 39°   Wind: 5mph
Humidity: 76%   Direction: 10°N
Pressure: 30.23"   Gusts: NA
Location:  38.8948°N, 84.2968°W
Report Text: KLUK 220927Z AUTO 01004KT 10SM BKN023 OVC040 08/04 A3023 RMK AO2 T00780039
Loading
Personal Weather Stations






























Interactive Weather Map
Tropical Storm Tracking
New forecast layout! Learn more

10-Day Weather Forecast

Advertisements
Track Severe Weather on mobile